EGPD/ABZ METAR and TAF weather

Enter ICAO airport designator
Station Type Date Time Source
EGPD METAR 2019/05/25 08:50 UTC NOAA

EGPD 250850Z AUTO VRB02KT 9999 BKN026 OVC030 11/05 Q1016


Station Type Date Time Source
EGPD Decoded METAR 2019/05/25 08:50 UTC NOAA

Aberdeen / Dyce, United Kingdom (EGPD) 57-12N 002-13W 0M
May 25, 2019 - 04:50 AM EDT / 2019.05.25 0850 UTC
Wind: Variable at 2 MPH (2 KT):0
Visibility: greater than 7 mile(s):0
Sky conditions: overcast
Temperature: 51 F (11 C)
Dew Point: 41 F (5 C)
Relative Humidity: 66%
Pressure (altimeter): 30.00 in. Hg (1016 hPa)
ob: EGPD 250850Z AUTO VRB02KT 9999 BKN026 OVC030 11/05 Q1016
cycle: 9

Station Type Date Time Source
EGPD TAF 2019/05/25 08:36 UTC NOAA

TAF
AMD TAF
AMD EGPD 250832Z 2508/2606 VRB04KT 9999 SCT040
TEMPO 2512/2606 4000 -RADZ BKN007
BECMG 2515/2518 03010KT PROB40
TEMPO 2515/2606 2000 RADZ BR BKN004

Example: see airport list